sensor_id;sensor_type;location;lat;lon;timestamp;P1;durP1;ratioP1;P2;durP2;ratioP2
18576;SDS011;9418;52.694;13.294;2023-04-29T00:01:23;7.90;;;6.20;;
18576;SDS011;9418;52.694;13.294;2023-04-29T00:03:49;12.87;;;7.63;;
18576;SDS011;9418;52.694;13.294;2023-04-29T00:06:16;7.00;;;6.37;;
18576;SDS011;9418;52.694;13.294;2023-04-29T00:08:43;13.90;;;6.60;;
18576;SDS011;9418;52.694;13.294;2023-04-29T00:11:09;6.87;;;6.20;;
18576;SDS011;9418;52.694;13.294;2023-04-29T00:13:36;15.13;;;7.00;;
18576;SDS011;9418;52.694;13.294;2023-04-29T00:16:05;7.13;;;6.10;;
18576;SDS011;9418;52.694;13.294;2023-04-29T00:18:33;11.03;;;6.30;;
18576;SDS011;9418;52.694;13.294;2023-04-29T00:21:01;7.03;;;6.30;;
18576;SDS011;9418;52.694;13.294;2023-04-29T00:23:29;7.83;;;5.80;;
18576;SDS011;9418;52.694;13.294;2023-04-29T00:25:56;7.47;;;6.73;;
18576;SDS011;9418;52.694;13.294;2023-04-29T00:28:23;8.37;;;6.10;;
18576;SDS011;9418;52.694;13.294;2023-04-29T00:30:49;7.90;;;5.93;;
18576;SDS011;9418;52.694;13.294;2023-04-29T00:33:17;7.10;;;6.17;;
18576;SDS011;9418;52.694;13.294;2023-04-29T00:35:45;19.57;;;6.87;;
18576;SDS011;9418;52.694;13.294;2023-04-29T00:38:12;6.13;;;5.53;;
18576;SDS011;9418;52.694;13.294;2023-04-29T00:40:38;7.40;;;6.20;;
18576;SDS011;9418;52.694;13.294;2023-04-29T00:43:05;12.17;;;6.20;;
18576;SDS011;9418;52.694;13.294;2023-04-29T00:45:31;9.00;;;6.27;;
18576;SDS011;9418;52.694;13.294;2023-04-29T00:47:58;9.13;;;6.77;;
18576;SDS011;9418;52.694;13.294;2023-04-29T00:50:24;6.90;;;6.30;;
18576;SDS011;9418;52.694;13.294;2023-04-29T00:52:53;6.97;;;6.27;;
18576;SDS011;9418;52.694;13.294;2023-04-29T00:55:19;9.20;;;6.60;;
18576;SDS011;9418;52.694;13.294;2023-04-29T00:57:47;11.00;;;6.70;;
18576;SDS011;9418;52.694;13.294;2023-04-29T01:00:16;7.27;;;6.20;;
18576;SDS011;9418;52.694;13.294;2023-04-29T01:02:43;8.63;;;6.53;;
18576;SDS011;9418;52.694;13.294;2023-04-29T01:05:11;6.70;;;6.07;;
18576;SDS011;9418;52.694;13.294;2023-04-29T01:07:41;9.97;;;6.30;;
18576;SDS011;9418;52.694;13.294;2023-04-29T01:10:17;7.63;;;6.30;;
18576;SDS011;9418;52.694;13.294;2023-04-29T01:12:53;11.43;;;7.13;;
18576;SDS011;9418;52.694;13.294;2023-04-29T01:15:27;7.10;;;6.50;;
18576;SDS011;9418;52.694;13.294;2023-04-29T01:17:58;7.60;;;6.20;;
18576;SDS011;9418;52.694;13.294;2023-04-29T01:20:28;6.83;;;6.13;;
18576;SDS011;9418;52.694;13.294;2023-04-29T01:22:57;6.27;;;5.70;;
18576;SDS011;9418;52.694;13.294;2023-04-29T01:25:25;9.53;;;7.40;;
18576;SDS011;9418;52.694;13.294;2023-04-29T01:27:54;7.37;;;6.57;;
18576;SDS011;9418;52.694;13.294;2023-04-29T01:30:30;9.77;;;6.33;;
18576;SDS011;9418;52.694;13.294;2023-04-29T01:33:08;9.27;;;6.93;;
18576;SDS011;9418;52.694;13.294;2023-04-29T01:35:49;8.20;;;6.70;;
18576;SDS011;9418;52.694;13.294;2023-04-29T01:38:25;7.10;;;6.17;;
18576;SDS011;9418;52.694;13.294;2023-04-29T01:41:01;7.87;;;6.97;;
18576;SDS011;9418;52.694;13.294;2023-04-29T01:43:36;8.10;;;7.07;;
18576;SDS011;9418;52.694;13.294;2023-04-29T01:46:03;10.63;;;6.80;;
18576;SDS011;9418;52.694;13.294;2023-04-29T01:48:34;7.13;;;6.50;;
18576;SDS011;9418;52.694;13.294;2023-04-29T01:51:00;7.17;;;6.57;;
18576;SDS011;9418;52.694;13.294;2023-04-29T01:53:27;11.43;;;6.90;;
18576;SDS011;9418;52.694;13.294;2023-04-29T01:55:54;7.60;;;6.90;;
18576;SDS011;9418;52.694;13.294;2023-04-29T01:58:22;11.63;;;8.17;;
18576;SDS011;9418;52.694;13.294;2023-04-29T02:00:48;7.90;;;7.20;;
18576;SDS011;9418;52.694;13.294;2023-04-29T02:03:15;9.70;;;7.07;;
18576;SDS011;9418;52.694;13.294;2023-04-29T02:05:42;8.50;;;7.70;;
18576;SDS011;9418;52.694;13.294;2023-04-29T02:08:08;10.10;;;7.90;;
18576;SDS011;9418;52.694;13.294;2023-04-29T02:10:35;8.90;;;7.90;;
18576;SDS011;9418;52.694;13.294;2023-04-29T02:13:01;8.60;;;7.60;;
18576;SDS011;9418;52.694;13.294;2023-04-29T02:15:29;12.70;;;7.93;;
18576;SDS011;9418;52.694;13.294;2023-04-29T02:17:56;8.80;;;8.00;;
18576;SDS011;9418;52.694;13.294;2023-04-29T02:20:22;28.23;;;8.10;;
18576;SDS011;9418;52.694;13.294;2023-04-29T02:22:49;8.97;;;7.43;;
18576;SDS011;9418;52.694;13.294;2023-04-29T02:25:15;14.20;;;8.90;;
18576;SDS011;9418;52.694;13.294;2023-04-29T02:27:42;10.00;;;8.27;;
18576;SDS011;9418;52.694;13.294;2023-04-29T02:30:09;10.73;;;9.27;;
18576;SDS011;9418;52.694;13.294;2023-04-29T02:32:37;10.33;;;9.27;;
18576;SDS011;9418;52.694;13.294;2023-04-29T02:35:04;11.17;;;8.47;;
18576;SDS011;9418;52.694;13.294;2023-04-29T02:37:32;11.67;;;10.00;;
18576;SDS011;9418;52.694;13.294;2023-04-29T02:39:59;10.70;;;9.37;;
18576;SDS011;9418;52.694;13.294;2023-04-29T02:42:26;13.23;;;9.83;;
18576;SDS011;9418;52.694;13.294;2023-04-29T02:44:52;10.73;;;9.70;;
18576;SDS011;9418;52.694;13.294;2023-04-29T02:47:19;12.50;;;8.90;;
18576;SDS011;9418;52.694;13.294;2023-04-29T02:49:47;13.40;;;9.93;;
18576;SDS011;9418;52.694;13.294;2023-04-29T02:52:13;11.37;;;10.27;;
18576;SDS011;9418;52.694;13.294;2023-04-29T02:54:41;11.53;;;10.37;;
18576;SDS011;9418;52.694;13.294;2023-04-29T02:57:07;11.47;;;10.37;;
18576;SDS011;9418;52.694;13.294;2023-04-29T02:59:34;11.13;;;10.03;;
18576;SDS011;9418;52.694;13.294;2023-04-29T03:02:01;11.03;;;10.00;;
18576;SDS011;9418;52.694;13.294;2023-04-29T03:04:27;11.87;;;10.77;;
18576;SDS011;9418;52.694;13.294;2023-04-29T03:06:55;12.97;;;11.63;;
18576;SDS011;9418;52.694;13.294;2023-04-29T03:09:22;13.73;;;11.23;;
18576;SDS011;9418;52.694;13.294;2023-04-29T03:11:48;12.40;;;11.03;;
18576;SDS011;9418;52.694;13.294;2023-04-29T03:14:15;12.10;;;10.90;;
18576;SDS011;9418;52.694;13.294;2023-04-29T03:16:42;14.60;;;12.03;;
18576;SDS011;9418;52.694;13.294;2023-04-29T03:19:09;15.23;;;11.93;;
18576;SDS011;9418;52.694;13.294;2023-04-29T03:21:35;12.80;;;11.17;;
18576;SDS011;9418;52.694;13.294;2023-04-29T03:24:03;16.30;;;11.80;;
18576;SDS011;9418;52.694;13.294;2023-04-29T03:26:30;12.93;;;11.60;;
18576;SDS011;9418;52.694;13.294;2023-04-29T03:28:57;14.30;;;12.80;;
18576;SDS011;9418;52.694;13.294;2023-04-29T03:31:24;13.83;;;12.33;;
18576;SDS011;9418;52.694;13.294;2023-04-29T03:33:51;15.30;;;12.57;;
18576;SDS011;9418;52.694;13.294;2023-04-29T03:36:17;17.93;;;13.30;;
18576;SDS011;9418;52.694;13.294;2023-04-29T03:38:44;14.47;;;12.97;;
18576;SDS011;9418;52.694;13.294;2023-04-29T03:41:12;15.70;;;14.20;;
18576;SDS011;9418;52.694;13.294;2023-04-29T03:43:39;15.13;;;13.10;;
18576;SDS011;9418;52.694;13.294;2023-04-29T03:46:08;15.90;;;14.27;;
18576;SDS011;9418;52.694;13.294;2023-04-29T03:48:34;21.33;;;13.90;;
18576;SDS011;9418;52.694;13.294;2023-04-29T03:51:01;24.63;;;14.80;;
18576;SDS011;9418;52.694;13.294;2023-04-29T03:53:28;17.23;;;15.43;;
18576;SDS011;9418;52.694;13.294;2023-04-29T03:55:55;16.03;;;14.33;;
18576;SDS011;9418;52.694;13.294;2023-04-29T03:58:23;16.67;;;14.60;;
18576;SDS011;9418;52.694;13.294;2023-04-29T04:00:49;17.33;;;15.10;;
18576;SDS011;9418;52.694;13.294;2023-04-29T04:03:16;17.00;;;15.20;;
18576;SDS011;9418;52.694;13.294;2023-04-29T04:05:42;22.00;;;16.00;;
18576;SDS011;9418;52.694;13.294;2023-04-29T04:08:09;18.57;;;16.43;;
18576;SDS011;9418;52.694;13.294;2023-04-29T04:10:36;18.77;;;16.70;;
18576;SDS011;9418;52.694;13.294;2023-04-29T04:13:02;17.93;;;16.33;;
18576;SDS011;9418;52.694;13.294;2023-04-29T04:15:30;24.73;;;16.90;;
18576;SDS011;9418;52.694;13.294;2023-04-29T04:17:57;18.90;;;16.90;;
18576;SDS011;9418;52.694;13.294;2023-04-29T04:20:23;19.10;;;16.40;;
18576;SDS011;9418;52.694;13.294;2023-04-29T04:22:50;19.27;;;17.37;;
18576;SDS011;9418;52.694;13.294;2023-04-29T04:25:18;19.40;;;17.50;;
18576;SDS011;9418;52.694;13.294;2023-04-29T04:27:45;24.10;;;18.13;;
18576;SDS011;9418;52.694;13.294;2023-04-29T04:30:12;20.63;;;18.53;;
18576;SDS011;9418;52.694;13.294;2023-04-29T04:32:39;23.60;;;19.97;;
18576;SDS011;9418;52.694;13.294;2023-04-29T04:35:06;19.93;;;17.80;;
18576;SDS011;9418;52.694;13.294;2023-04-29T04:37:33;26.90;;;19.70;;
18576;SDS011;9418;52.694;13.294;2023-04-29T04:40:00;23.67;;;21.17;;
18576;SDS011;9418;52.694;13.294;2023-04-29T04:42:27;24.63;;;20.33;;
18576;SDS011;9418;52.694;13.294;2023-04-29T04:44:53;21.23;;;18.93;;
18576;SDS011;9418;52.694;13.294;2023-04-29T04:47:20;27.57;;;21.30;;
18576;SDS011;9418;52.694;13.294;2023-04-29T04:49:48;25.00;;;20.70;;
18576;SDS011;9418;52.694;13.294;2023-04-29T04:52:18;24.07;;;20.50;;
18576;SDS011;9418;52.694;13.294;2023-04-29T04:54:45;24.60;;;20.80;;
18576;SDS011;9418;52.694;13.294;2023-04-29T04:57:11;21.37;;;19.07;;
18576;SDS011;9418;52.694;13.294;2023-04-29T04:59:38;22.40;;;20.20;;
18576;SDS011;9418;52.694;13.294;2023-04-29T05:02:04;25.77;;;22.30;;
18576;SDS011;9418;52.694;13.294;2023-04-29T05:04:32;31.93;;;21.20;;
18576;SDS011;9418;52.694;13.294;2023-04-29T05:07:00;22.83;;;20.53;;
18576;SDS011;9418;52.694;13.294;2023-04-29T05:09:27;23.60;;;21.10;;
18576;SDS011;9418;52.694;13.294;2023-04-29T05:11:53;25.48;;;20.30;;
18576;SDS011;9418;52.694;13.294;2023-04-29T05:14:20;36.20;;;22.20;;
18576;SDS011;9418;52.694;13.294;2023-04-29T05:16:47;25.40;;;22.57;;
18576;SDS011;9418;52.694;13.294;2023-04-29T05:19:13;23.27;;;20.87;;
18576;SDS011;9418;52.694;13.294;2023-04-29T05:21:40;23.27;;;19.50;;
18576;SDS011;9418;52.694;13.294;2023-04-29T05:24:07;22.90;;;20.60;;
18576;SDS011;9418;52.694;13.294;2023-04-29T05:26:34;23.10;;;20.70;;
18576;SDS011;9418;52.694;13.294;2023-04-29T05:29:01;22.70;;;19.87;;
18576;SDS011;9418;52.694;13.294;2023-04-29T05:31:27;28.70;;;22.23;;
18576;SDS011;9418;52.694;13.294;2023-04-29T05:33:54;26.83;;;22.50;;
18576;SDS011;9418;52.694;13.294;2023-04-29T05:36:20;25.90;;;21.87;;
18576;SDS011;9418;52.694;13.294;2023-04-29T05:38:47;24.00;;;20.93;;
18576;SDS011;9418;52.694;13.294;2023-04-29T05:41:15;24.77;;;20.87;;
18576;SDS011;9418;52.694;13.294;2023-04-29T05:43:41;24.37;;;21.37;;
18576;SDS011;9418;52.694;13.294;2023-04-29T05:46:08;27.23;;;23.00;;
18576;SDS011;9418;52.694;13.294;2023-04-29T05:48:35;23.67;;;21.17;;
18576;SDS011;9418;52.694;13.294;2023-04-29T05:51:01;25.00;;;21.37;;
18576;SDS011;9418;52.694;13.294;2023-04-29T05:53:28;27.13;;;24.20;;
18576;SDS011;9418;52.694;13.294;2023-04-29T05:55:55;25.20;;;22.10;;
18576;SDS011;9418;52.694;13.294;2023-04-29T05:58:23;26.00;;;21.03;;
18576;SDS011;9418;52.694;13.294;2023-04-29T06:00:50;22.60;;;20.37;;
18576;SDS011;9418;52.694;13.294;2023-04-29T06:03:17;27.07;;;23.40;;
18576;SDS011;9418;52.694;13.294;2023-04-29T06:05:43;31.70;;;22.30;;
18576;SDS011;9418;52.694;13.294;2023-04-29T06:08:10;25.37;;;22.57;;
18576;SDS011;9418;52.694;13.294;2023-04-29T06:10:36;29.40;;;24.13;;
18576;SDS011;9418;52.694;13.294;2023-04-29T06:13:03;26.53;;;23.63;;
18576;SDS011;9418;52.694;13.294;2023-04-29T06:15:31;27.17;;;23.30;;
18576;SDS011;9418;52.694;13.294;2023-04-29T06:17:58;29.33;;;24.00;;
18576;SDS011;9418;52.694;13.294;2023-04-29T06:20:24;28.53;;;23.87;;
18576;SDS011;9418;52.694;13.294;2023-04-29T06:22:51;33.07;;;29.33;;
18576;SDS011;9418;52.694;13.294;2023-04-29T06:25:17;27.77;;;22.50;;
18576;SDS011;9418;52.694;13.294;2023-04-29T06:27:44;26.93;;;21.37;;
18576;SDS011;9418;52.694;13.294;2023-04-29T06:30:11;30.83;;;23.20;;
18576;SDS011;9418;52.694;13.294;2023-04-29T06:32:39;21.70;;;19.40;;
18576;SDS011;9418;52.694;13.294;2023-04-29T06:35:06;23.27;;;18.97;;
18576;SDS011;9418;52.694;13.294;2023-04-29T06:37:33;22.97;;;18.80;;
18576;SDS011;9418;52.694;13.294;2023-04-29T06:39:59;24.23;;;18.67;;
18576;SDS011;9418;52.694;13.294;2023-04-29T06:42:26;25.30;;;18.27;;
18576;SDS011;9418;52.694;13.294;2023-04-29T06:44:52;18.13;;;16.30;;
18576;SDS011;9418;52.694;13.294;2023-04-29T06:47:19;17.27;;;14.87;;
18576;SDS011;9418;52.694;13.294;2023-04-29T06:49:47;14.23;;;12.83;;
18576;SDS011;9418;52.694;13.294;2023-04-29T06:52:14;14.50;;;13.10;;
18576;SDS011;9418;52.694;13.294;2023-04-29T06:54:40;12.87;;;11.60;;
18576;SDS011;9418;52.694;13.294;2023-04-29T06:57:07;13.73;;;12.33;;
18576;SDS011;9418;52.694;13.294;2023-04-29T06:59:34;13.30;;;11.97;;
18576;SDS011;9418;52.694;13.294;2023-04-29T07:02:00;13.20;;;11.37;;
18576;SDS011;9418;52.694;13.294;2023-04-29T07:04:27;12.23;;;11.13;;
18576;SDS011;9418;52.694;13.294;2023-04-29T07:06:55;12.87;;;11.57;;
18576;SDS011;9418;52.694;13.294;2023-04-29T07:09:23;12.63;;;11.40;;
18576;SDS011;9418;52.694;13.294;2023-04-29T07:11:51;19.93;;;13.00;;
18576;SDS011;9418;52.694;13.294;2023-04-29T07:14:18;12.40;;;11.07;;
18576;SDS011;9418;52.694;13.294;2023-04-29T07:16:46;14.43;;;12.93;;
18576;SDS011;9418;52.694;13.294;2023-04-29T07:19:12;18.63;;;11.80;;
18576;SDS011;9418;52.694;13.294;2023-04-29T07:21:39;13.47;;;12.17;;
18576;SDS011;9418;52.694;13.294;2023-04-29T07:24:07;16.27;;;14.03;;
18576;SDS011;9418;52.694;13.294;2023-04-29T07:26:33;14.20;;;12.70;;
18576;SDS011;9418;52.694;13.294;2023-04-29T07:29:00;14.40;;;13.10;;
18576;SDS011;9418;52.694;13.294;2023-04-29T07:31:27;15.27;;;13.73;;
18576;SDS011;9418;52.694;13.294;2023-04-29T07:33:53;14.90;;;13.30;;
18576;SDS011;9418;52.694;13.294;2023-04-29T07:36:21;14.63;;;13.10;;
18576;SDS011;9418;52.694;13.294;2023-04-29T07:38:47;16.73;;;12.63;;
18576;SDS011;9418;52.694;13.294;2023-04-29T07:41:15;17.17;;;13.90;;
18576;SDS011;9418;52.694;13.294;2023-04-29T07:43:41;17.70;;;12.43;;
18576;SDS011;9418;52.694;13.294;2023-04-29T07:46:08;16.13;;;14.27;;
18576;SDS011;9418;52.694;13.294;2023-04-29T07:48:35;14.67;;;13.17;;
18576;SDS011;9418;52.694;13.294;2023-04-29T07:51:03;15.30;;;12.43;;
18576;SDS011;9418;52.694;13.294;2023-04-29T07:53:29;14.20;;;12.30;;
18576;SDS011;9418;52.694;13.294;2023-04-29T07:55:56;14.90;;;13.50;;
18576;SDS011;9418;52.694;13.294;2023-04-29T07:58:24;12.80;;;11.70;;
18576;SDS011;9418;52.694;13.294;2023-04-29T08:00:52;13.83;;;12.47;;
18576;SDS011;9418;52.694;13.294;2023-04-29T08:03:19;13.30;;;12.00;;
18576;SDS011;9418;52.694;13.294;2023-04-29T08:05:46;13.70;;;12.40;;
18576;SDS011;9418;52.694;13.294;2023-04-29T08:08:15;12.17;;;10.97;;
18576;SDS011;9418;52.694;13.294;2023-04-29T08:10:41;12.27;;;10.83;;
18576;SDS011;9418;52.694;13.294;2023-04-29T08:13:08;11.63;;;10.53;;
18576;SDS011;9418;52.694;13.294;2023-04-29T08:15:36;12.87;;;9.73;;
18576;SDS011;9418;52.694;13.294;2023-04-29T08:18:03;12.10;;;11.00;;
18576;SDS011;9418;52.694;13.294;2023-04-29T08:20:30;12.87;;;11.77;;
18576;SDS011;9418;52.694;13.294;2023-04-29T08:22:57;15.30;;;13.80;;
18576;SDS011;9418;52.694;13.294;2023-04-29T08:25:24;28.43;;;25.77;;
18576;SDS011;9418;52.694;13.294;2023-04-29T08:27:53;17.07;;;15.47;;
18576;SDS011;9418;52.694;13.294;2023-04-29T08:30:20;20.33;;;18.13;;
18576;SDS011;9418;52.694;13.294;2023-04-29T08:32:48;21.10;;;19.00;;
18576;SDS011;9418;52.694;13.294;2023-04-29T08:35:14;22.93;;;20.53;;
18576;SDS011;9418;52.694;13.294;2023-04-29T08:37:41;22.97;;;19.63;;
18576;SDS011;9418;52.694;13.294;2023-04-29T08:40:08;23.73;;;21.33;;
18576;SDS011;9418;52.694;13.294;2023-04-29T08:42:35;22.73;;;20.43;;
18576;SDS011;9418;52.694;13.294;2023-04-29T08:45:02;24.20;;;21.57;;
18576;SDS011;9418;52.694;13.294;2023-04-29T08:47:30;23.53;;;20.80;;
18576;SDS011;9418;52.694;13.294;2023-04-29T08:50:00;24.70;;;20.37;;
18576;SDS011;9418;52.694;13.294;2023-04-29T08:52:29;32.60;;;22.10;;
18576;SDS011;9418;52.694;13.294;2023-04-29T08:54:56;25.90;;;22.40;;
18576;SDS011;9418;52.694;13.294;2023-04-29T08:57:23;30.10;;;24.33;;
18576;SDS011;9418;52.694;13.294;2023-04-29T08:59:51;28.50;;;23.70;;
18576;SDS011;9418;52.694;13.294;2023-04-29T09:02:18;29.80;;;23.80;;
18576;SDS011;9418;52.694;13.294;2023-04-29T09:04:49;28.43;;;23.60;;
18576;SDS011;9418;52.694;13.294;2023-04-29T09:07:23;32.03;;;26.30;;
18576;SDS011;9418;52.694;13.294;2023-04-29T09:09:50;32.00;;;24.83;;
18576;SDS011;9418;52.694;13.294;2023-04-29T09:12:18;32.33;;;27.30;;
18576;SDS011;9418;52.694;13.294;2023-04-29T09:14:45;33.77;;;26.43;;
18576;SDS011;9418;52.694;13.294;2023-04-29T09:17:12;33.77;;;26.80;;
18576;SDS011;9418;52.694;13.294;2023-04-29T09:19:40;30.63;;;27.33;;
18576;SDS011;9418;52.694;13.294;2023-04-29T09:22:07;36.67;;;28.30;;
18576;SDS011;9418;52.694;13.294;2023-04-29T09:24:36;33.97;;;28.87;;
18576;SDS011;9418;52.694;13.294;2023-04-29T09:27:03;33.47;;;28.17;;
18576;SDS011;9418;52.694;13.294;2023-04-29T09:29:30;37.63;;;28.50;;
18576;SDS011;9418;52.694;13.294;2023-04-29T09:31:58;40.53;;;31.17;;
18576;SDS011;9418;52.694;13.294;2023-04-29T09:34:29;33.30;;;27.37;;
18576;SDS011;9418;52.694;13.294;2023-04-29T09:36:57;35.30;;;29.20;;
18576;SDS011;9418;52.694;13.294;2023-04-29T09:39:24;36.43;;;27.80;;
18576;SDS011;9418;52.694;13.294;2023-04-29T09:41:59;40.53;;;27.50;;
18576;SDS011;9418;52.694;13.294;2023-04-29T09:44:27;39.40;;;28.70;;
18576;SDS011;9418;52.694;13.294;2023-04-29T09:46:56;34.63;;;26.73;;
18576;SDS011;9418;52.694;13.294;2023-04-29T09:49:23;33.63;;;25.73;;
18576;SDS011;9418;52.694;13.294;2023-04-29T09:51:51;27.67;;;24.77;;
18576;SDS011;9418;52.694;13.294;2023-04-29T09:54:19;28.37;;;24.00;;
18576;SDS011;9418;52.694;13.294;2023-04-29T09:56:47;40.27;;;24.50;;
18576;SDS011;9418;52.694;13.294;2023-04-29T09:59:17;30.90;;;25.40;;
18576;SDS011;9418;52.694;13.294;2023-04-29T10:01:43;33.07;;;23.70;;
18576;SDS011;9418;52.694;13.294;2023-04-29T10:04:13;31.27;;;22.67;;
18576;SDS011;9418;52.694;13.294;2023-04-29T10:06:41;27.20;;;23.53;;
18576;SDS011;9418;52.694;13.294;2023-04-29T10:09:12;23.40;;;20.93;;
18576;SDS011;9418;52.694;13.294;2023-04-29T10:11:43;26.10;;;21.10;;
18576;SDS011;9418;52.694;13.294;2023-04-29T10:14:11;27.83;;;20.97;;
18576;SDS011;9418;52.694;13.294;2023-04-29T10:16:42;25.30;;;19.40;;
18576;SDS011;9418;52.694;13.294;2023-04-29T10:19:11;29.87;;;20.60;;
18576;SDS011;9418;52.694;13.294;2023-04-29T10:21:43;27.07;;;20.50;;
18576;SDS011;9418;52.694;13.294;2023-04-29T10:24:11;33.53;;;22.47;;
18576;SDS011;9418;52.694;13.294;2023-04-29T10:26:40;23.80;;;19.67;;
18576;SDS011;9418;52.694;13.294;2023-04-29T10:29:08;23.77;;;19.80;;
18576;SDS011;9418;52.694;13.294;2023-04-29T10:31:39;25.70;;;19.73;;
18576;SDS011;9418;52.694;13.294;2023-04-29T10:34:07;28.00;;;19.47;;
18576;SDS011;9418;52.694;13.294;2023-04-29T10:36:34;25.30;;;19.07;;
18576;SDS011;9418;52.694;13.294;2023-04-29T10:39:02;22.00;;;19.50;;
18576;SDS011;9418;52.694;13.294;2023-04-29T10:41:32;24.83;;;17.83;;
18576;SDS011;9418;52.694;13.294;2023-04-29T10:44:02;23.13;;;17.80;;
18576;SDS011;9418;52.694;13.294;2023-04-29T10:46:29;19.77;;;17.00;;
18576;SDS011;9418;52.694;13.294;2023-04-29T10:48:59;23.37;;;17.70;;
18576;SDS011;9418;52.694;13.294;2023-04-29T10:51:27;19.93;;;16.83;;
18576;SDS011;9418;52.694;13.294;2023-04-29T10:53:57;21.63;;;16.87;;
18576;SDS011;9418;52.694;13.294;2023-04-29T10:56:37;17.97;;;16.07;;
18576;SDS011;9418;52.694;13.294;2023-04-29T10:59:08;20.90;;;14.93;;
18576;SDS011;9418;52.694;13.294;2023-04-29T11:01:40;31.03;;;16.67;;
18576;SDS011;9418;52.694;13.294;2023-04-29T11:04:10;18.10;;;15.27;;
18576;SDS011;9418;52.694;13.294;2023-04-29T11:06:37;16.10;;;14.50;;
18576;SDS011;9418;52.694;13.294;2023-04-29T11:09:10;15.27;;;13.47;;
18576;SDS011;9418;52.694;13.294;2023-04-29T11:11:42;16.80;;;14.13;;
18576;SDS011;9418;52.694;13.294;2023-04-29T11:14:11;17.67;;;12.70;;
18576;SDS011;9418;52.694;13.294;2023-04-29T11:16:45;16.93;;;14.37;;
18576;SDS011;9418;52.694;13.294;2023-04-29T11:19:15;17.93;;;13.63;;
18576;SDS011;9418;52.694;13.294;2023-04-29T11:21:43;18.90;;;13.37;;
18576;SDS011;9418;52.694;13.294;2023-04-29T11:24:11;17.53;;;13.30;;
18576;SDS011;9418;52.694;13.294;2023-04-29T11:26:39;25.77;;;14.93;;
18576;SDS011;9418;52.694;13.294;2023-04-29T11:29:07;20.03;;;13.67;;
18576;SDS011;9418;52.694;13.294;2023-04-29T11:31:35;18.00;;;13.20;;
18576;SDS011;9418;52.694;13.294;2023-04-29T11:34:03;15.50;;;12.90;;
18576;SDS011;9418;52.694;13.294;2023-04-29T11:36:32;15.70;;;12.30;;
18576;SDS011;9418;52.694;13.294;2023-04-29T11:38:59;15.53;;;11.67;;
18576;SDS011;9418;52.694;13.294;2023-04-29T11:41:27;14.00;;;11.77;;
18576;SDS011;9418;52.694;13.294;2023-04-29T11:43:54;14.30;;;11.90;;
18576;SDS011;9418;52.694;13.294;2023-04-29T11:46:21;11.70;;;10.50;;
18576;SDS011;9418;52.694;13.294;2023-04-29T11:48:48;13.80;;;9.30;;
18576;SDS011;9418;52.694;13.294;2023-04-29T11:51:16;14.90;;;10.63;;
18576;SDS011;9418;52.694;13.294;2023-04-29T11:53:45;16.00;;;10.67;;
18576;SDS011;9418;52.694;13.294;2023-04-29T11:56:12;16.17;;;10.57;;
18576;SDS011;9418;52.694;13.294;2023-04-29T11:58:40;16.67;;;11.00;;
18576;SDS011;9418;52.694;13.294;2023-04-29T12:01:08;13.37;;;11.33;;
18576;SDS011;9418;52.694;13.294;2023-04-29T12:03:35;20.33;;;12.17;;
18576;SDS011;9418;52.694;13.294;2023-04-29T12:06:01;12.83;;;10.87;;
18576;SDS011;9418;52.694;13.294;2023-04-29T12:08:29;15.43;;;11.90;;
18576;SDS011;9418;52.694;13.294;2023-04-29T12:10:59;11.77;;;9.80;;
18576;SDS011;9418;52.694;13.294;2023-04-29T12:13:26;11.27;;;9.47;;
18576;SDS011;9418;52.694;13.294;2023-04-29T12:15:55;10.10;;;9.13;;
18576;SDS011;9418;52.694;13.294;2023-04-29T12:18:22;15.70;;;8.83;;
18576;SDS011;9418;52.694;13.294;2023-04-29T12:20:51;10.57;;;9.33;;
18576;SDS011;9418;52.694;13.294;2023-04-29T12:23:20;9.53;;;8.57;;
18576;SDS011;9418;52.694;13.294;2023-04-29T12:25:48;10.80;;;8.50;;
18576;SDS011;9418;52.694;13.294;2023-04-29T12:28:17;13.47;;;8.50;;
18576;SDS011;9418;52.694;13.294;2023-04-29T12:30:45;7.20;;;6.60;;
18576;SDS011;9418;52.694;13.294;2023-04-29T12:33:15;10.20;;;7.80;;
18576;SDS011;9418;52.694;13.294;2023-04-29T12:35:45;7.70;;;7.00;;
18576;SDS011;9418;52.694;13.294;2023-04-29T12:38:14;6.63;;;6.13;;
18576;SDS011;9418;52.694;13.294;2023-04-29T12:40:42;8.83;;;6.87;;
18576;SDS011;9418;52.694;13.294;2023-04-29T12:43:09;7.50;;;6.87;;
18576;SDS011;9418;52.694;13.294;2023-04-29T12:45:38;8.30;;;7.30;;
18576;SDS011;9418;52.694;13.294;2023-04-29T12:48:04;11.03;;;7.10;;
18576;SDS011;9418;52.694;13.294;2023-04-29T12:50:32;10.40;;;7.20;;
18576;SDS011;9418;52.694;13.294;2023-04-29T12:53:00;7.90;;;7.20;;
18576;SDS011;9418;52.694;13.294;2023-04-29T12:55:27;7.33;;;6.63;;
18576;SDS011;9418;52.694;13.294;2023-04-29T12:57:54;7.20;;;6.50;;
18576;SDS011;9418;52.694;13.294;2023-04-29T13:00:21;7.70;;;7.03;;
18576;SDS011;9418;52.694;13.294;2023-04-29T13:02:49;10.17;;;7.67;;
18576;SDS011;9418;52.694;13.294;2023-04-29T13:05:16;9.60;;;8.27;;
18576;SDS011;9418;52.694;13.294;2023-04-29T13:07:42;10.67;;;8.03;;
18576;SDS011;9418;52.694;13.294;2023-04-29T13:10:09;8.00;;;7.30;;
18576;SDS011;9418;52.694;13.294;2023-04-29T13:12:37;8.80;;;8.03;;
18576;SDS011;9418;52.694;13.294;2023-04-29T13:15:04;10.43;;;7.93;;
18576;SDS011;9418;52.694;13.294;2023-04-29T13:17:33;10.87;;;9.40;;
18576;SDS011;9418;52.694;13.294;2023-04-29T13:20:01;10.00;;;8.87;;
18576;SDS011;9418;52.694;13.294;2023-04-29T13:22:28;17.30;;;10.23;;
18576;SDS011;9418;52.694;13.294;2023-04-29T13:24:55;14.00;;;9.97;;
18576;SDS011;9418;52.694;13.294;2023-04-29T13:27:21;16.90;;;9.07;;
18576;SDS011;9418;52.694;13.294;2023-04-29T13:29:48;15.23;;;9.57;;
18576;SDS011;9418;52.694;13.294;2023-04-29T13:32:15;13.40;;;8.60;;
18576;SDS011;9418;52.694;13.294;2023-04-29T13:34:41;11.13;;;8.40;;
18576;SDS011;9418;52.694;13.294;2023-04-29T13:37:10;12.60;;;9.03;;
18576;SDS011;9418;52.694;13.294;2023-04-29T13:39:37;13.70;;;8.80;;
18576;SDS011;9418;52.694;13.294;2023-04-29T13:42:04;9.90;;;8.10;;
18576;SDS011;9418;52.694;13.294;2023-04-29T13:44:31;11.97;;;8.50;;
18576;SDS011;9418;52.694;13.294;2023-04-29T13:46:58;12.30;;;8.63;;
18576;SDS011;9418;52.694;13.294;2023-04-29T13:49:24;10.47;;;8.80;;
18576;SDS011;9418;52.694;13.294;2023-04-29T13:51:52;9.60;;;8.40;;
18576;SDS011;9418;52.694;13.294;2023-04-29T13:54:20;11.10;;;8.87;;
18576;SDS011;9418;52.694;13.294;2023-04-29T13:56:46;11.27;;;8.07;;
18576;SDS011;9418;52.694;13.294;2023-04-29T13:59:13;10.33;;;8.53;;
18576;SDS011;9418;52.694;13.294;2023-04-29T14:01:39;9.37;;;7.40;;
18576;SDS011;9418;52.694;13.294;2023-04-29T14:04:06;9.20;;;7.57;;
18576;SDS011;9418;52.694;13.294;2023-04-29T14:06:33;15.83;;;7.43;;
18576;SDS011;9418;52.694;13.294;2023-04-29T14:09:00;18.20;;;7.33;;
18576;SDS011;9418;52.694;13.294;2023-04-29T14:11:29;17.63;;;7.50;;
18576;SDS011;9418;52.694;13.294;2023-04-29T14:14:00;6.97;;;5.87;;
18576;SDS011;9418;52.694;13.294;2023-04-29T14:16:26;8.63;;;5.63;;
18576;SDS011;9418;52.694;13.294;2023-04-29T14:18:53;9.53;;;6.50;;
18576;SDS011;9418;52.694;13.294;2023-04-29T14:21:20;6.53;;;5.87;;
18576;SDS011;9418;52.694;13.294;2023-04-29T14:23:47;9.50;;;5.63;;
18576;SDS011;9418;52.694;13.294;2023-04-29T14:26:14;8.53;;;6.80;;
18576;SDS011;9418;52.694;13.294;2023-04-29T14:28:42;8.37;;;6.40;;
18576;SDS011;9418;52.694;13.294;2023-04-29T14:31:08;20.23;;;7.13;;